Time;durP1;ratioP1;P1;durP2;ratioP2;P2;SDS_P1;SDS_P2;PMS_P1;PMS_P2;Temp;Humidity;BMP_temperature;BMP_pressure;BME280_temperature;BME280_humidity;BME280_pressure;Samples;Min_cycle;Max_cycle;Signal;HPM_P1;HPM_P2
2022/02/13 00:01:10;;;;;;;;;;;;;;;18.93;61.03;102844.66;5031433;28;1681;-36
2022/02/13 00:03:47;;;;;;;;;;;;;;;18.92;60.19;102834.91;5046051;28;1902;-36
2022/02/13 00:06:14;;;;;;;;;;;;;;;18.93;60.06;102838.44;5040981;28;1793;-36
2022/02/13 00:08:49;;;;;;;;;;;;;;;18.93;60.43;102847.34;5027067;28;1873;-36
2022/02/13 00:11:19;;;;;;;;;;;;;;;18.90;60.96;102854.69;5014737;28;1064;-36
2022/02/13 00:13:51;;;;;;;;;;;;;;;18.88;60.22;102838.72;5029816;28;1423;-36
2022/02/13 00:16:18;;;;;;;;;;;;;;;18.86;61.06;102835.22;5038088;28;1681;-36
2022/02/13 00:18:45;;;;;;;;;;;;;;;18.82;61.08;102841.69;5040440;28;1672;-36
2022/02/13 00:21:12;;;;;;;;;;;;;;;18.81;60.20;102853.38;5033919;28;1132;-36
2022/02/13 00:23:41;;;;;;;;;;;;;;;18.75;60.39;102843.81;5042165;28;1979;-36
2022/02/13 00:26:09;;;;;;;;;;;;;;;18.72;60.38;102835.09;5037879;28;1457;-36
2022/02/13 00:28:37;;;;;;;;;;;;;;;18.69;60.96;102838.81;5014365;28;997;-35
2022/02/13 00:31:07;;;;;;;;;;;;;;;18.68;61.12;102840.63;5046497;28;1988;-36
2022/02/13 00:33:36;;;;;;;;;;;;;;;18.71;61.05;102836.03;5051251;28;1936;-36
2022/02/13 00:36:05;;;;;;;;;;;;;;;18.72;60.86;102851.16;5038813;28;1435;-36
2022/02/13 00:38:34;;;;;;;;;;;;;;;18.72;61.02;102833.28;5033825;28;1744;-36
2022/02/13 00:41:03;;;;;;;;;;;;;;;18.78;60.47;102832.06;5033480;28;1904;-36
2022/02/13 00:43:33;;;;;;;;;;;;;;;18.71;60.77;102828.00;5039680;28;1981;-36
2022/02/13 00:45:59;;;;;;;;;;;;;;;18.68;60.83;102832.59;5034804;28;1601;-36
2022/02/13 00:48:29;;;;;;;;;;;;;;;18.67;61.20;102828.16;5049627;28;1717;-36
2022/02/13 00:50:58;;;;;;;;;;;;;;;18.64;60.81;102828.34;5042507;28;1525;-35
2022/02/13 00:53:26;;;;;;;;;;;;;;;18.62;60.74;102835.59;5050590;28;1696;-36
2022/02/13 00:55:56;;;;;;;;;;;;;;;18.57;61.01;102828.75;5044428;28;1076;-36
2022/02/13 00:58:27;;;;;;;;;;;;;;;18.56;60.88;102825.22;5034602;28;1756;-36
2022/02/13 01:01:00;;;;;;;;;;;;;;;18.54;60.60;102828.91;5039851;28;1632;-36
2022/02/13 01:03:32;;;;;;;;;;;;;;;18.57;60.60;102812.69;5037154;28;1553;-36
2022/02/13 01:06:00;;;;;;;;;;;;;;;18.52;60.26;102812.91;5034790;28;1576;-36
2022/02/13 01:08:29;;;;;;;;;;;;;;;18.53;60.88;102825.38;5043388;28;1836;-37
2022/02/13 01:10:59;;;;;;;;;;;;;;;18.51;61.11;102818.38;5047186;28;1901;-36
2022/02/13 01:13:27;;;;;;;;;;;;;;;18.54;60.55;102824.41;5049011;28;1830;-35
2022/02/13 01:15:56;;;;;;;;;;;;;;;18.53;60.88;102816.47;5051436;28;1786;-36
2022/02/13 01:18:25;;;;;;;;;;;;;;;18.50;60.40;102804.09;5046617;28;1226;-37
2022/02/13 01:20:59;;;;;;;;;;;;;;;18.49;60.66;102805.03;5044161;28;1636;-36
2022/02/13 01:23:25;;;;;;;;;;;;;;;18.43;60.45;102811.59;5034431;28;1901;-36
2022/02/13 01:25:54;;;;;;;;;;;;;;;18.47;60.35;102798.91;5040399;28;1910;-36
2022/02/13 01:28:24;;;;;;;;;;;;;;;18.47;60.38;102812.31;5037147;28;1115;-36
2022/02/13 01:30:50;;;;;;;;;;;;;;;18.43;60.52;102790.16;5041726;28;1717;-37
2022/02/13 01:33:19;;;;;;;;;;;;;;;18.44;60.08;102796.38;5039360;28;1930;-36
2022/02/13 01:35:46;;;;;;;;;;;;;;;18.42;60.40;102799.16;5043716;28;1756;-34
2022/02/13 01:38:18;;;;;;;;;;;;;;;18.38;60.32;102788.69;5042895;28;2074;-34
2022/02/13 01:40:48;;;;;;;;;;;;;;;18.38;60.29;102776.16;5045335;28;1828;-34
2022/02/13 01:43:18;;;;;;;;;;;;;;;18.43;60.40;102787.47;5052375;28;1744;-34
2022/02/13 01:45:45;;;;;;;;;;;;;;;18.38;60.61;102777.97;5049152;28;1902;-37
2022/02/13 01:48:13;;;;;;;;;;;;;;;18.38;60.59;102784.19;5050481;28;1589;-36
2022/02/13 01:50:41;;;;;;;;;;;;;;;18.40;60.62;102778.75;5029681;28;1579;-36
2022/02/13 01:53:13;;;;;;;;;;;;;;;18.39;60.31;102775.22;5045086;28;1084;-36
2022/02/13 01:55:45;;;;;;;;;;;;;;;18.43;60.47;102779.44;5048746;28;1146;-36
2022/02/13 01:58:24;;;;;;;;;;;;;;;18.43;60.27;102768.72;5053490;28;1752;-36
2022/02/13 02:00:52;;;;;;;;;;;;;;;18.40;60.50;102768.03;5052181;28;1481;-36
2022/02/13 02:03:18;;;;;;;;;;;;;;;18.40;60.15;102762.66;5048296;28;1399;-36
2022/02/13 02:05:46;;;;;;;;;;;;;;;18.43;60.37;102773.22;5045480;28;1903;-36
2022/02/13 02:08:13;;;;;;;;;;;;;;;18.41;60.46;102762.59;5042533;28;1304;-36
2022/02/13 02:10:40;;;;;;;;;;;;;;;18.39;60.45;102772.53;5041431;28;1050;-36
2022/02/13 02:13:13;;;;;;;;;;;;;;;18.35;60.16;102759.38;5035440;28;1891;-36
2022/02/13 02:15:48;;;;;;;;;;;;;;;18.34;59.88;102753.16;5029576;28;1601;-36
2022/02/13 02:18:16;;;;;;;;;;;;;;;18.35;60.45;102762.94;5029663;28;1667;-36
2022/02/13 02:20:43;;;;;;;;;;;;;;;18.29;60.29;102766.78;5047222;28;1088;-36
2022/02/13 02:23:13;;;;;;;;;;;;;;;18.30;60.35;102767.66;5045512;28;1771;-36
2022/02/13 02:25:40;;;;;;;;;;;;;;;18.29;60.33;102768.63;5043109;28;1910;-36
2022/02/13 02:28:06;;;;;;;;;;;;;;;18.28;60.01;102759.72;5043280;28;1040;-36
2022/02/13 02:30:36;;;;;;;;;;;;;;;18.26;60.17;102760.72;5043498;28;1815;-36
2022/02/13 02:33:05;;;;;;;;;;;;;;;18.31;60.39;102773.91;5038296;28;1779;-36
2022/02/13 02:35:32;;;;;;;;;;;;;;;18.31;60.12;102771.22;5033760;28;1313;-36
2022/02/13 02:38:01;;;;;;;;;;;;;;;18.29;60.13;102766.78;5040211;28;1640;-36
2022/02/13 02:40:29;;;;;;;;;;;;;;;18.31;60.35;102768.53;5053570;28;1790;-36
2022/02/13 02:42:56;;;;;;;;;;;;;;;18.35;59.75;102772.78;5046406;28;1652;-35
2022/02/13 02:45:23;;;;;;;;;;;;;;;18.27;59.68;102768.69;5036368;28;1975;-36
2022/02/13 02:47:50;;;;;;;;;;;;;;;18.27;60.24;102768.69;5046277;28;1566;-36
2022/02/13 02:50:17;;;;;;;;;;;;;;;18.24;60.11;102763.50;5047208;28;1734;-36
2022/02/13 02:52:47;;;;;;;;;;;;;;;18.27;60.16;102766.00;5042828;28;1826;-36
2022/02/13 02:55:14;;;;;;;;;;;;;;;18.26;60.20;102772.34;5049012;28;1808;-36
2022/02/13 02:57:44;;;;;;;;;;;;;;;18.23;60.01;102763.59;5036547;28;1799;-36
2022/02/13 03:02:55;;;;;;;;;;;;;;;18.28;60.18;102765.09;5031141;23;2327;-34
2022/02/13 03:05:22;;;;;;;;;;;;;;;18.27;59.87;102747.25;5006952;28;1911;-36
2022/02/13 03:07:51;;;;;;;;;;;;;;;18.29;59.84;102761.44;5011792;28;1702;-37
2022/02/13 03:10:19;;;;;;;;;;;;;;;18.28;60.30;102770.44;5005010;28;1893;-36
2022/02/13 03:13:00;;;;;;;;;;;;;;;18.25;60.13;102765.22;5000271;28;1553;-36
2022/02/13 03:15:39;;;;;;;;;;;;;;;18.23;59.96;102772.47;4997977;28;1958;-36
2022/02/13 03:18:06;;;;;;;;;;;;;;;18.29;60.01;102772.16;5008226;28;1601;-36
2022/02/13 03:20:34;;;;;;;;;;;;;;;18.27;60.19;102771.38;5006243;28;1087;-36
2022/02/13 03:23:01;;;;;;;;;;;;;;;18.28;59.76;102758.84;5010892;28;2001;-36
2022/02/13 03:25:38;;;;;;;;;;;;;;;18.24;59.95;102763.50;5002166;28;1971;-36
2022/02/13 03:28:06;;;;;;;;;;;;;;;18.26;59.81;102750.91;4995483;28;1091;-36
2022/02/13 03:30:36;;;;;;;;;;;;;;;18.20;60.00;102767.28;5004386;28;1909;-36
2022/02/13 03:33:03;;;;;;;;;;;;;;;18.20;59.93;102745.00;5006051;28;1629;-36
2022/02/13 03:35:33;;;;;;;;;;;;;;;18.19;59.79;102745.97;5004530;28;1865;-37
2022/02/13 03:38:08;;;;;;;;;;;;;;;18.16;60.20;102749.63;5006350;28;1359;-37
2022/02/13 03:40:34;;;;;;;;;;;;;;;18.16;60.04;102754.13;5003076;28;1889;-36
2022/02/13 03:43:03;;;;;;;;;;;;;;;18.13;59.72;102744.47;5001926;28;1652;-37
2022/02/13 03:45:31;;;;;;;;;;;;;;;18.15;59.90;102750.59;5005022;28;1997;-38
2022/02/13 03:47:59;;;;;;;;;;;;;;;18.15;60.05;102753.28;5004740;28;1544;-37
2022/02/13 03:50:26;;;;;;;;;;;;;;;18.12;60.16;102748.06;5005883;28;1600;-36
2022/02/13 03:52:53;;;;;;;;;;;;;;;18.09;59.82;102732.19;5007278;28;1658;-36
2022/02/13 03:55:20;;;;;;;;;;;;;;;18.15;59.95;102752.41;4999460;28;1793;-36
2022/02/13 03:57:47;;;;;;;;;;;;;;;18.13;60.20;102744.47;4995250;28;1559;-37
2022/02/13 04:02:58;;;;;;;;;;;;;;;18.13;59.96;102739.13;5001071;28;1854;-36
2022/02/13 04:05:28;;;;;;;;;;;;;;;18.14;59.72;102738.16;5007704;28;1910;-37
2022/02/13 04:07:55;;;;;;;;;;;;;;;18.20;59.52;102737.81;5002343;28;1777;-36
2022/02/13 04:10:26;;;;;;;;;;;;;;;18.21;59.77;102742.25;5002851;28;1954;-37
2022/02/13 04:12:56;;;;;;;;;;;;;;;18.14;59.88;102738.16;5013128;28;1866;-36
2022/02/13 04:15:24;;;;;;;;;;;;;;;18.11;59.82;102740.16;5012082;28;1527;-36
2022/02/13 04:17:59;;;;;;;;;;;;;;;18.07;59.89;102739.44;5003585;28;1008;-36
2022/02/13 04:20:29;;;;;;;;;;;;;;;18.05;60.00;102746.69;4997704;28;1563;-36
2022/02/13 04:22:59;;;;;;;;;;;;;;;18.04;59.49;102744.94;5011795;28;1816;-37
2022/02/13 04:25:26;;;;;;;;;;;;;;;18.02;59.71;102741.47;5005105;28;1910;-36
2022/02/13 04:28:04;;;;;;;;;;;;;;;18.00;59.84;102732.66;5002022;28;1171;-36
2022/02/13 04:30:31;;;;;;;;;;;;;;;17.99;59.69;102744.34;5003743;28;1919;-36
2022/02/13 04:32:57;;;;;;;;;;;;;;;17.96;59.74;102736.44;5002257;28;1671;-36
2022/02/13 04:35:28;;;;;;;;;;;;;;;17.97;59.88;102743.56;5010558;28;1999;-37
2022/02/13 04:38:05;;;;;;;;;;;;;;;17.95;59.91;102734.75;5002699;28;1645;-36
2022/02/13 04:40:32;;;;;;;;;;;;;;;17.92;59.65;102745.59;4996063;28;1404;-36
2022/02/13 04:43:03;;;;;;;;;;;;;;;17.92;59.97;102735.75;5011198;28;1692;-36
2022/02/13 04:45:32;;;;;;;;;;;;;;;17.93;59.62;102737.50;5009640;28;1977;-36
2022/02/13 04:48:00;;;;;;;;;;;;;;;17.93;60.06;102760.72;5004907;28;1332;-36
2022/02/13 04:50:28;;;;;;;;;;;;;;;17.92;59.89;102753.63;5003696;28;1162;-36
2022/02/13 04:52:58;;;;;;;;;;;;;;;17.93;60.04;102747.34;5010473;28;1631;-36
2022/02/13 04:55:32;;;;;;;;;;;;;;;17.89;59.68;102738.59;5004332;28;1758;-37
2022/02/13 04:58:01;;;;;;;;;;;;;;;17.91;59.79;102746.56;5010745;28;1766;-36
2022/02/13 05:00:39;;;;;;;;;;;;;;;17.88;59.70;102751.09;5012585;28;1706;-36
2022/02/13 05:03:11;;;;;;;;;;;;;;;17.85;59.82;102739.69;4999734;28;1514;-36
2022/02/13 05:05:39;;;;;;;;;;;;;;;17.86;59.56;102755.66;5004634;28;1898;-36
2022/02/13 05:08:09;;;;;;;;;;;;;;;17.83;59.89;102726.41;5008829;28;1963;-36
2022/02/13 05:10:37;;;;;;;;;;;;;;;17.85;59.85;102737.88;4996214;28;1515;-36
2022/02/13 05:13:05;;;;;;;;;;;;;;;17.87;59.83;102738.66;5010586;28;1815;-36
2022/02/13 05:15:35;;;;;;;;;;;;;;;17.84;59.71;102740.63;4995874;28;1515;-36
2022/02/13 05:18:01;;;;;;;;;;;;;;;17.85;60.07;102750.41;5002415;28;1677;-36
2022/02/13 05:20:30;;;;;;;;;;;;;;;17.79;59.58;102735.50;5003841;28;1083;-36
2022/02/13 05:22:57;;;;;;;;;;;;;;;17.76;59.73;102740.13;5007696;28;1641;-36
2022/02/13 05:25:27;;;;;;;;;;;;;;;17.77;59.79;102753.44;5012696;28;2003;-36
2022/02/13 05:27:56;;;;;;;;;;;;;;;17.78;59.74;102743.59;4995709;28;1828;-36
2022/02/13 05:30:25;;;;;;;;;;;;;;;17.77;59.64;102740.06;5006166;28;1329;-36
2022/02/13 05:32:53;;;;;;;;;;;;;;;17.79;59.43;102750.69;5003772;28;1784;-36
2022/02/13 05:35:25;;;;;;;;;;;;;;;17.77;59.78;102750.78;5005341;28;1743;-36
2022/02/13 05:37:54;;;;;;;;;;;;;;;17.73;59.75;102746.53;5007059;28;1839;-36
2022/02/13 05:40:23;;;;;;;;;;;;;;;17.73;59.61;102746.53;5002916;28;1165;-36
2022/02/13 05:42:52;;;;;;;;;;;;;;;17.71;59.47;102753.75;5003540;28;1815;-37
2022/02/13 05:45:21;;;;;;;;;;;;;;;17.69;59.51;102750.31;5004030;28;1982;-36
2022/02/13 05:47:56;;;;;;;;;;;;;;;17.72;59.45;102763.50;5002586;28;1739;-36
2022/02/13 05:50:25;;;;;;;;;;;;;;;17.71;59.32;102769.81;5009984;28;1956;-36
2022/02/13 05:52:55;;;;;;;;;;;;;;;17.74;59.63;102769.63;5008376;28;1843;-36
2022/02/13 05:55:30;;;;;;;;;;;;;;;17.70;59.39;102763.56;4999092;28;1805;-36
2022/02/13 05:58:02;;;;;;;;;;;;;;;17.68;59.47;102775.31;5007936;28;1772;-36
2022/02/13 06:00:28;;;;;;;;;;;;;;;17.66;59.50;102771.84;5008184;28;1434;-36
2022/02/13 06:03:04;;;;;;;;;;;;;;;17.67;59.61;102773.59;4998353;28;1747;-36
2022/02/13 06:05:32;;;;;;;;;;;;;;;17.68;59.24;102783.34;4997899;28;1906;-36
2022/02/13 06:07:58;;;;;;;;;;;;;;;17.73;59.67;102765.25;5002130;28;1821;-37
2022/02/13 06:10:32;;;;;;;;;;;;;;;17.75;60.06;102768.72;5012567;28;1929;-36
2022/02/13 06:13:04;;;;;;;;;;;;;;;17.76;60.54;102777.59;5007157;28;1498;-36
2022/02/13 06:15:34;;;;;;;;;;;;;;;17.89;60.77;102776.94;4997076;28;1625;-37
2022/02/13 06:18:08;;;;;;;;;;;;;;;17.91;61.83;102784.03;4998133;28;1733;-35
2022/02/13 06:20:40;;;;;;;;;;;;;;;17.95;59.79;102791.81;5012684;28;1840;-36
2022/02/13 06:23:08;;;;;;;;;;;;;;;17.85;59.95;102786.06;5015686;28;2056;-36
2022/02/13 06:25:43;;;;;;;;;;;;;;;17.87;59.86;102813.63;5008261;28;1983;-36
2022/02/13 06:28:14;;;;;;;;;;;;;;;17.99;59.47;102806.75;5016129;28;1084;-37
2022/02/13 06:30:42;;;;;;;;;;;;;;;18.00;60.21;102796.91;5006554;28;1939;-36
2022/02/13 06:33:10;;;;;;;;;;;;;;;18.00;59.55;102807.63;5002867;28;1789;-37
2022/02/13 06:35:39;;;;;;;;;;;;;;;17.95;60.53;102825.75;5014331;28;1911;-36
2022/02/13 06:38:05;;;;;;;;;;;;;;;17.89;60.91;102827.78;5011132;28;1476;-36
2022/02/13 06:40:32;;;;;;;;;;;;;;;17.86;61.52;102817.22;5013846;28;1994;-37
2022/02/13 06:43:00;;;;;;;;;;;;;;;18.21;62.19;102821.72;5013146;28;1864;-37
2022/02/13 06:45:36;;;;;;;;;;;;;;;18.45;61.70;102806.16;5002360;28;1906;-37
2022/02/13 06:48:04;;;;;;;;;;;;;;;18.77;60.35;102808.91;5012931;28;1350;-37
2022/02/13 06:50:31;;;;;;;;;;;;;;;18.93;59.61;102811.63;5013354;28;1601;-37
2022/02/13 06:53:05;;;;;;;;;;;;;;;19.02;59.06;102819.16;4999023;28;1813;-37
2022/02/13 06:55:36;;;;;;;;;;;;;;;19.11;59.12;102828.53;5001181;28;1901;-37
2022/02/13 06:58:12;;;;;;;;;;;;;;;19.24;58.60;102818.84;5013017;28;1831;-37
2022/02/13 07:00:44;;;;;;;;;;;;;;;19.37;58.72;102814.47;5009855;28;1663;-37
2022/02/13 07:03:10;;;;;;;;;;;;;;;19.48;58.55;102828.16;5002973;28;1963;-37
2022/02/13 07:05:46;;;;;;;;;;;;;;;19.43;59.16;102818.63;5013506;28;1906;-37
2022/02/13 07:08:20;;;;;;;;;;;;;;;19.56;59.58;102813.44;5014717;28;2029;-37
2022/02/13 07:10:47;;;;;;;;;;;;;;;19.56;58.89;102802.69;4995758;28;1080;-37
2022/02/13 07:13:16;;;;;;;;;;;;;;;19.63;59.55;102804.91;5000345;28;1742;-36
2022/02/13 07:15:44;;;;;;;;;;;;;;;19.86;59.70;102800.91;5004780;28;1748;-36
2022/02/13 07:18:14;;;;;;;;;;;;;;;19.62;55.89;102799.66;5013153;28;1926;-37
2022/02/13 07:20:42;;;;;;;;;;;;;;;19.72;56.30;102800.03;5001368;28;1019;-36
2022/02/13 07:23:17;;;;;;;;;;;;;;;19.80;56.99;102793.22;5007231;28;1745;-37
2022/02/13 07:25:46;;;;;;;;;;;;;;;19.90;57.46;102803.44;5008322;28;1902;-36
2022/02/13 07:31:12;;;;;;;;;;;;;;;20.47;56.45;102795.41;5003918;28;1943;-36
2022/02/13 07:33:39;;;;;;;;;;;;;;;20.29;57.11;102796.56;4996500;28;1948;-36
2022/02/13 07:36:06;;;;;;;;;;;;;;;20.22;56.88;102793.41;5003655;28;1557;-36
2022/02/13 07:38:34;;;;;;;;;;;;;;;20.37;57.52;102787.09;5007820;28;2024;-36
2022/02/13 07:41:02;;;;;;;;;;;;;;;20.26;57.30;102798.50;5007790;28;1417;-37
2022/02/13 07:43:29;;;;;;;;;;;;;;;20.16;56.26;102791.97;4996108;28;1824;-36
2022/02/13 07:45:58;;;;;;;;;;;;;;;20.29;56.41;102801.94;5001859;28;1980;-36
2022/02/13 07:48:31;;;;;;;;;;;;;;;19.83;56.83;102784.97;5008496;28;1811;-36
2022/02/13 07:53:40;;;;;;;;;;;;;;;19.25;57.01;102799.09;4996667;28;2408;-37
2022/02/13 07:56:10;;;;;;;;;;;;;;;19.58;55.42;102773.97;5008242;28;1646;-37
2022/02/13 07:58:40;;;;;;;;;;;;;;;19.37;56.38;102774.25;5012364;28;1975;-37
2022/02/13 08:01:07;;;;;;;;;;;;;;;19.18;56.97;102776.25;5012550;28;1972;-37
2022/02/13 08:03:49;;;;;;;;;;;;;;;19.29;56.00;102779.19;5011275;28;1662;-37
2022/02/13 08:06:26;;;;;;;;;;;;;;;19.34;54.83;102766.38;4999207;28;2785;-37
2022/02/13 08:08:56;;;;;;;;;;;;;;;19.42;55.42;102763.25;5006479;28;1428;-36
2022/02/13 08:11:26;;;;;;;;;;;;;;;19.36;56.43;102756.44;5013704;28;1531;-36
2022/02/13 08:13:52;;;;;;;;;;;;;;;19.35;55.85;102752.00;5013607;28;1576;-36
2022/02/13 08:16:23;;;;;;;;;;;;;;;19.66;55.16;102742.16;5009045;28;1899;-36
2022/02/13 08:18:50;;;;;;;;;;;;;;;19.74;56.48;102750.63;5002763;28;1412;-35
2022/02/13 08:21:20;;;;;;;;;;;;;;;19.93;56.51;102754.88;5013739;28;1696;-36
2022/02/13 08:23:49;;;;;;;;;;;;;;;20.03;56.01;102739.94;5008645;28;1742;-36
2022/02/13 08:26:26;;;;;;;;;;;;;;;19.51;54.60;102751.97;5013332;28;1975;-35
2022/02/13 08:28:53;;;;;;;;;;;;;;;19.23;52.69;102745.53;5013443;28;1562;-37
2022/02/13 08:31:21;;;;;;;;;;;;;;;19.28;52.90;102740.78;5012061;28;1623;-36
2022/02/13 08:33:49;;;;;;;;;;;;;;;19.31;54.26;102742.41;5012335;28;1754;-36
2022/02/13 08:36:15;;;;;;;;;;;;;;;19.27;52.02;102747.06;5010023;28;2150;-36
2022/02/13 08:38:46;;;;;;;;;;;;;;;18.06;48.63;102751.09;5008979;28;1648;-37
2022/02/13 08:41:20;;;;;;;;;;;;;;;17.61;48.93;102736.44;5006291;28;1822;-36
2022/02/13 08:43:52;;;;;;;;;;;;;;;17.48;45.38;102742.41;5001831;28;1847;-35
2022/02/13 08:46:19;;;;;;;;;;;;;;;16.16;44.94;102747.78;5010646;28;1902;-37
2022/02/13 08:51:27;;;;;;;;;;;;;;;16.47;43.88;102732.13;5002003;28;2252;-37
2022/02/13 08:54:01;;;;;;;;;;;;;;;16.49;43.92;102740.03;4998782;28;1981;-36
2022/02/13 08:56:28;;;;;;;;;;;;;;;16.79;41.41;102713.72;5003338;28;1765;-37
2022/02/13 08:58:59;;;;;;;;;;;;;;;16.85;41.79;102731.25;5012866;28;2077;-37
2022/02/13 09:01:32;;;;;;;;;;;;;;;16.91;41.43;102709.59;5010579;28;1783;-36
2022/02/13 09:04:02;;;;;;;;;;;;;;;17.32;39.88;102714.69;5009553;28;1769;-37
2022/02/13 09:06:31;;;;;;;;;;;;;;;17.85;39.88;102707.59;5002687;28;1906;-37
2022/02/13 09:09:00;;;;;;;;;;;;;;;18.20;39.55;102702.16;4998980;28;1950;-37
2022/02/13 09:11:26;;;;;;;;;;;;;;;18.45;39.86;102699.00;5009234;28;1571;-37
2022/02/13 09:13:57;;;;;;;;;;;;;;;19.14;39.77;102700.50;5012273;28;1580;-37
2022/02/13 09:16:24;;;;;;;;;;;;;;;19.35;40.56;102676.88;5009805;28;1695;-37
2022/02/13 09:18:51;;;;;;;;;;;;;;;19.44;40.68;102676.34;5004550;28;1831;-37
2022/02/13 09:21:17;;;;;;;;;;;;;;;19.86;41.17;102673.88;5009767;28;1229;-37
2022/02/13 09:23:45;;;;;;;;;;;;;;;19.78;42.10;102679.69;5012013;28;1591;-37
2022/02/13 09:26:21;;;;;;;;;;;;;;;19.63;43.08;102673.41;5008899;28;1981;-37
2022/02/13 09:28:47;;;;;;;;;;;;;;;19.38;42.89;102676.72;5005006;28;1822;-37
2022/02/13 09:31:15;;;;;;;;;;;;;;;19.23;43.06;102672.25;5010784;28;1997;-38
2022/02/13 09:33:45;;;;;;;;;;;;;;;19.35;43.55;102676.88;5012069;28;1851;-37
2022/02/13 09:36:13;;;;;;;;;;;;;;;19.44;43.30;102672.81;4999319;28;1601;-37
2022/02/13 09:38:41;;;;;;;;;;;;;;;19.58;44.68;102666.59;5011692;28;1709;-37
2022/02/13 09:41:08;;;;;;;;;;;;;;;19.60;44.00;102659.31;4999540;28;1959;-37
2022/02/13 09:43:36;;;;;;;;;;;;;;;19.77;43.32;102669.91;5003694;28;1602;-37
2022/02/13 09:46:06;;;;;;;;;;;;;;;20.28;44.67;102658.69;5011018;28;1738;-38
2022/02/13 09:48:41;;;;;;;;;;;;;;;20.07;44.28;102658.22;5008156;28;1902;-37
2022/02/13 09:51:08;;;;;;;;;;;;;;;20.00;44.49;102648.84;5012721;28;1381;-37
2022/02/13 09:53:36;;;;;;;;;;;;;;;19.90;44.74;102656.59;5012526;28;1508;-38
2022/02/13 09:56:04;;;;;;;;;;;;;;;19.90;45.31;102645.00;5010903;28;1639;-37
2022/02/13 09:58:45;;;;;;;;;;;;;;;19.80;45.00;102626.78;5002591;28;2005;-37
2022/02/13 10:01:35;;;;;;;;;;;;;;;19.83;46.41;102634.63;4999541;28;1716;-37
2022/02/13 10:04:06;;;;;;;;;;;;;;;19.86;46.61;102630.91;4997804;28;1738;-37
2022/02/13 10:06:37;;;;;;;;;;;;;;;19.87;45.71;102624.56;5010924;28;1990;-37
2022/02/13 10:09:07;;;;;;;;;;;;;;;19.94;46.70;102612.50;5006768;28;1550;-37
2022/02/13 10:11:38;;;;;;;;;;;;;;;19.88;46.76;102617.41;5003473;28;1359;-37
2022/02/13 10:14:06;;;;;;;;;;;;;;;20.05;45.49;102611.78;5006280;28;1832;-36
2022/02/13 10:16:49;;;;;;;;;;;;;;;19.77;46.49;102608.16;5010613;28;1455;-37
2022/02/13 10:19:28;;;;;;;;;;;;;;;19.65;47.69;102603.53;5005286;28;1416;-36
2022/02/13 10:22:02;;;;;;;;;;;;;;;19.54;47.46;102614.09;5013679;28;1456;-36
2022/02/13 10:24:31;;;;;;;;;;;;;;;19.76;46.70;102603.78;5011380;28;1451;-38
2022/02/13 10:27:24;;;;;;;;;;;;;;;19.66;47.52;102589.16;5005374;28;1902;-36
2022/02/13 10:29:55;;;;;;;;;;;;;;;19.39;47.85;102600.63;5007525;28;1326;-36
2022/02/13 10:32:25;;;;;;;;;;;;;;;19.31;48.00;102597.56;5007689;28;1328;-36
2022/02/13 10:35:07;;;;;;;;;;;;;;;19.48;47.95;102592.03;5011193;28;1321;-37
2022/02/13 10:37:44;;;;;;;;;;;;;;;19.27;48.23;102598.69;5008410;28;1612;-37
2022/02/13 10:40:11;;;;;;;;;;;;;;;19.22;48.25;102584.72;5006968;28;1640;-36
2022/02/13 10:42:39;;;;;;;;;;;;;;;19.18;47.96;102580.47;5003519;28;1759;-37
2022/02/13 10:45:21;;;;;;;;;;;;;;;19.13;50.82;102569.16;4996352;28;1072;-36
2022/02/13 10:47:49;;;;;;;;;;;;;;;19.16;53.11;102572.53;4996243;28;1972;-36
2022/02/13 10:50:21;;;;;;;;;;;;;;;19.10;53.51;102561.28;5008768;28;1742;-37
2022/02/13 10:53:05;;;;;;;;;;;;;;;19.16;55.59;102552.88;5009389;28;1913;-36
2022/02/13 10:55:42;;;;;;;;;;;;;;;19.16;56.01;102569.84;5010622;28;1778;-36
2022/02/13 10:58:09;;;;;;;;;;;;;;;19.14;55.54;102550.31;4996975;28;1394;-36
2022/02/13 11:00:39;;;;;;;;;;;;;;;19.12;55.71;102538.81;5001964;28;1512;-37
2022/02/13 11:06:01;;;;;;;;;;;;;;;19.10;55.76;102526.44;5005587;28;2244;-37
2022/02/13 11:08:46;;;;;;;;;;;;;;;19.10;55.23;102527.31;5014033;28;1918;-37
2022/02/13 11:11:21;;;;;;;;;;;;;;;19.23;54.19;102522.06;5012729;28;1570;-37
2022/02/13 11:13:48;;;;;;;;;;;;;;;19.58;55.40;102509.13;5003188;28;1934;-36
2022/02/13 11:16:35;;;;;;;;;;;;;;;19.40;53.52;102512.97;5002409;28;1963;-36
2022/02/13 11:19:07;;;;;;;;;;;;;;;19.27;53.05;102513.72;5008269;28;1455;-36
2022/02/13 11:21:36;;;;;;;;;;;;;;;19.22;52.73;102510.47;5015283;28;1156;-36
2022/02/13 11:24:32;;;;;;;;;;;;;;;19.19;54.20;102504.44;5008619;28;1809;-36
2022/02/13 11:27:02;;;;;;;;;;;;;;;19.23;53.84;102490.72;4994116;28;1997;-36
2022/02/13 11:29:46;;;;;;;;;;;;;;;19.18;52.55;102487.47;4998306;28;1448;-34
2022/02/13 11:32:30;;;;;;;;;;;;;;;19.22;53.37;102478.28;5011281;28;1487;-33
2022/02/13 11:34:59;;;;;;;;;;;;;;;19.30;52.99;102485.88;5000012;28;1854;-33
2022/02/13 11:37:44;;;;;;;;;;;;;;;19.22;52.09;102477.44;5012534;28;1652;-34
2022/02/13 11:40:28;;;;;;;;;;;;;;;19.11;52.43;102477.22;5003449;28;1521;-33
2022/02/13 11:43:15;;;;;;;;;;;;;;;19.20;53.16;102463.22;4998497;28;2533;-34
2022/02/13 11:45:49;;;;;;;;;;;;;;;19.24;52.60;102471.00;5005869;28;1554;-33
2022/02/13 11:48:46;;;;;;;;;;;;;;;19.24;53.29;102470.16;5001396;28;1907;-34
2022/02/13 11:53:57;;;;;;;;;;;;;;;19.36;52.74;102453.28;4999332;28;1585;-34
2022/02/13 11:56:25;;;;;;;;;;;;;;;19.45;52.10;102447.31;4995069;28;1442;-33
2022/02/13 11:59:02;;;;;;;;;;;;;;;19.53;52.42;102448.66;4995296;28;1354;-33
2022/02/13 12:01:47;;;;;;;;;;;;;;;19.66;51.35;102438.88;4998064;28;1395;-33
2022/02/13 12:04:26;;;;;;;;;;;;;;;19.95;50.01;102434.28;4997952;28;1352;-33
2022/02/13 12:06:53;;;;;;;;;;;;;;;19.86;50.35;102416.97;4997727;28;1518;-33
2022/02/13 12:09:29;;;;;;;;;;;;;;;20.19;51.00;102421.09;4997482;28;1903;-33
2022/02/13 12:12:17;;;;;;;;;;;;;;;20.30;52.04;102414.13;4999944;28;1195;-34
2022/02/13 12:14:47;;;;;;;;;;;;;;;20.27;52.36;102417.84;4996733;28;1581;-34
2022/02/13 12:17:27;;;;;;;;;;;;;;;20.27;52.20;102409.78;5002732;28;1685;-34
2022/02/13 12:20:06;;;;;;;;;;;;;;;20.21;51.96;102411.09;5005478;28;1314;-34
2022/02/13 12:22:35;;;;;;;;;;;;;;;20.17;52.92;102406.88;5008730;28;1526;-34
2022/02/13 12:25:07;;;;;;;;;;;;;;;20.01;53.56;102401.66;5009567;28;1478;-34
2022/02/13 12:27:37;;;;;;;;;;;;;;;20.05;52.38;102408.56;5006610;28;1914;-34
2022/02/13 12:30:05;;;;;;;;;;;;;;;20.19;52.83;102394.22;4998665;28;1513;-34
2022/02/13 12:32:35;;;;;;;;;;;;;;;20.22;53.61;102388.63;4994819;28;1625;-34
2022/02/13 12:35:14;;;;;;;;;;;;;;;20.12;53.27;102371.41;4997063;28;1595;-34
2022/02/13 12:37:41;;;;;;;;;;;;;;;20.17;54.60;102387.22;4998577;28;1931;-34
2022/02/13 12:40:11;;;;;;;;;;;;;;;20.12;54.27;102365.19;5012923;28;1591;-34
2022/02/13 12:42:53;;;;;;;;;;;;;;;20.15;53.93;102368.50;5012245;28;1735;-35
2022/02/13 12:45:21;;;;;;;;;;;;;;;20.04;53.68;102374.63;5007480;28;1547;-34
2022/02/13 12:47:53;;;;;;;;;;;;;;;20.03;54.33;102380.09;5012194;28;1977;-34
2022/02/13 12:50:24;;;;;;;;;;;;;;;19.99;53.82;102354.41;5006907;28;1464;-34
2022/02/13 12:52:55;;;;;;;;;;;;;;;19.99;54.75;102354.41;5005825;28;1889;-34
2022/02/13 12:55:22;;;;;;;;;;;;;;;20.01;53.92;102364.06;5001652;28;1917;-34
2022/02/13 12:57:53;;;;;;;;;;;;;;;20.15;52.82;102338.09;4995034;28;1482;-36
2022/02/13 13:00:21;;;;;;;;;;;;;;;20.03;53.42;102335.31;5004592;28;1702;-34
2022/02/13 13:02:52;;;;;;;;;;;;;;;19.92;54.62;102363.84;4998839;28;1407;-34
2022/02/13 13:05:21;;;;;;;;;;;;;;;19.91;55.35;102346.84;4994454;28;1079;-34
2022/02/13 13:07:49;;;;;;;;;;;;;;;19.91;55.30;102337.94;5008928;28;1902;-36
2022/02/13 13:10:23;;;;;;;;;;;;;;;20.02;53.62;102332.72;5000756;28;1916;-34
2022/02/13 13:13:22;;;;;;;;;;;;;;;20.04;54.09;102341.53;4995095;28;1872;-34
2022/02/13 13:15:58;;;;;;;;;;;;;;;19.89;54.35;102331.81;5008880;28;1637;-34
2022/02/13 13:18:42;;;;;;;;;;;;;;;19.72;55.10;102330.28;5012705;28;1950;-35
2022/02/13 13:21:22;;;;;;;;;;;;;;;19.82;54.88;102326.03;5004666;28;1090;-34
2022/02/13 13:24:12;;;;;;;;;;;;;;;19.79;55.16;102328.91;5010745;28;1748;-34
2022/02/13 13:26:40;;;;;;;;;;;;;;;19.69;55.05;102315.19;5003532;28;2044;-34